Time;durP1;ratioP1;P1;durP2;ratioP2;P2;SDS_P1;SDS_P2;PMS_P1;PMS_P2;Temp;Humidity;BMP_temperature;BMP_pressure;BME280_temperature;BME280_humidity;BME280_pressure;Samples;Min_cycle;Max_cycle;Signal;HPM_P1;HPM_P2
2022/11/06 00:01:08;;;;;;;12.18;5.65;;;9.50;99.90;;;;;;5030221;28;20340;-72
2022/11/06 00:03:34;;;;;;;13.23;5.50;;;9.50;99.90;;;;;;5028073;28;20358;-72
2022/11/06 00:08:48;;;;;;;12.23;5.47;;;9.50;99.90;;;;;;5045497;28;20508;-72
2022/11/06 00:11:15;;;;;;;10.77;5.90;;;9.50;99.90;;;;;;5026289;28;20051;-72
2022/11/06 00:13:42;;;;;;;10.55;5.80;;;9.40;99.90;;;;;;5042894;28;20070;-72
2022/11/06 00:16:10;;;;;;;11.25;5.68;;;9.40;99.90;;;;;;5045023;28;20097;-72
2022/11/06 00:18:36;;;;;;;11.85;5.65;;;9.50;99.90;;;;;;5037049;28;20106;-73
2022/11/06 00:21:10;;;;;;;11.77;5.87;;;9.40;99.90;;;;;;5029945;28;20044;-72
2022/11/06 00:23:36;;;;;;;10.38;5.60;;;9.40;99.90;;;;;;5039949;28;20294;-72
2022/11/06 00:26:14;;;;;;;10.70;5.47;;;9.50;99.90;;;;;;5011544;28;20528;-72
2022/11/06 00:28:40;;;;;;;11.23;5.75;;;9.50;99.90;;;;;;5042956;28;20067;-72
2022/11/06 00:31:15;;;;;;;15.27;6.22;;;9.50;99.90;;;;;;5021458;28;20048;-72
2022/11/06 00:33:41;;;;;;;11.23;6.72;;;9.50;99.90;;;;;;5041362;28;20036;-72
2022/11/06 00:36:10;;;;;;;12.03;5.60;;;9.50;99.90;;;;;;5045341;28;20140;-72
2022/11/06 00:38:36;;;;;;;9.82;5.35;;;9.50;99.90;;;;;;5027547;28;20291;-72
2022/11/06 00:41:03;;;;;;;13.17;5.97;;;9.50;99.90;;;;;;5012733;28;20531;-72
2022/11/06 00:43:29;;;;;;;13.98;6.07;;;9.50;99.90;;;;;;5030136;28;20045;-72
2022/11/06 00:46:03;;;;;;;10.53;5.73;;;9.60;99.90;;;;;;5026809;28;20041;-72
2022/11/06 00:48:29;;;;;;;14.33;5.80;;;9.60;99.90;;;;;;5043961;28;20311;-72
2022/11/06 00:50:54;;;;;;;11.80;6.13;;;9.60;99.90;;;;;;5026946;28;20289;-72
2022/11/06 00:53:20;;;;;;;12.17;5.27;;;9.60;99.90;;;;;;5026574;28;20408;-72
2022/11/06 00:55:46;;;;;;;11.83;5.87;;;9.60;99.90;;;;;;5013105;28;20044;-72
2022/11/06 00:58:11;;;;;;;13.73;6.23;;;9.60;99.90;;;;;;5008246;28;20183;-72
2022/11/06 01:00:37;;;;;;;10.70;5.73;;;9.60;99.90;;;;;;5021884;28;20408;-72
2022/11/06 01:03:03;;;;;;;9.67;5.60;;;9.60;99.90;;;;;;5028203;28;20102;-72
2022/11/06 01:05:28;;;;;;;13.40;6.57;;;9.60;99.90;;;;;;5044214;28;20037;-72
2022/11/06 01:07:54;;;;;;;13.30;5.77;;;9.60;99.90;;;;;;5031350;28;20045;-72
2022/11/06 01:10:20;;;;;;;13.87;5.87;;;9.60;99.90;;;;;;5043236;28;20045;-72
2022/11/06 01:12:45;;;;;;;13.37;5.93;;;9.60;99.90;;;;;;5007113;28;20040;-72
2022/11/06 01:15:11;;;;;;;11.47;5.60;;;9.60;99.90;;;;;;5024888;28;20193;-72
2022/11/06 01:17:37;;;;;;;10.90;6.00;;;9.60;99.90;;;;;;5016032;28;20052;-72
2022/11/06 01:20:04;;;;;;;7.60;5.40;;;9.60;99.90;;;;;;5016342;28;20036;-72
2022/11/06 01:22:29;;;;;;;15.10;5.95;;;9.60;99.90;;;;;;5030010;28;20104;-72
2022/11/06 01:24:55;;;;;;;13.30;6.20;;;9.60;99.90;;;;;;5024753;28;20102;-72
2022/11/06 01:27:21;;;;;;;13.03;5.83;;;9.60;99.90;;;;;;5013357;28;20044;-72
2022/11/06 01:29:47;;;;;;;12.07;6.10;;;9.60;99.90;;;;;;5012739;28;20075;-72
2022/11/06 01:32:13;;;;;;;11.67;5.70;;;9.60;99.90;;;;;;5046128;28;20041;-72
2022/11/06 01:34:38;;;;;;;10.60;5.80;;;9.70;99.90;;;;;;5037560;28;20052;-72
2022/11/06 01:37:04;;;;;;;12.20;6.00;;;9.60;99.90;;;;;;5013820;28;20287;-72
2022/11/06 01:39:30;;;;;;;12.37;6.13;;;9.60;99.90;;;;;;5007631;28;20408;-72
2022/11/06 01:41:56;;;;;;;11.30;6.70;;;9.60;99.90;;;;;;5015460;28;20394;-72
2022/11/06 01:44:40;;;;;;;10.57;7.07;;;9.60;99.90;;;;;;5025547;28;20314;-72
2022/11/06 01:47:24;;;;;;;11.43;6.40;;;9.70;99.90;;;;;;5043913;28;20055;-72
2022/11/06 01:49:55;;;;;;;10.00;6.07;;;9.60;99.90;;;;;;5045291;28;20053;-72
2022/11/06 01:52:23;;;;;;;14.27;6.82;;;9.60;99.90;;;;;;5029703;28;20348;-72
2022/11/06 01:54:53;;;;;;;10.38;6.63;;;9.60;99.90;;;;;;5029178;28;20036;-72
2022/11/06 01:57:19;;;;;;;12.75;6.88;;;9.60;99.90;;;;;;5027013;28;20078;-72
2022/11/06 01:59:45;;;;;;;15.30;7.83;;;9.60;99.90;;;;;;5021440;28;20555;-72
2022/11/06 02:02:14;;;;;;;9.97;6.40;;;9.60;99.90;;;;;;5038632;28;20287;-72
2022/11/06 02:04:49;;;;;;;15.43;7.25;;;9.60;99.90;;;;;;5020755;28;20893;-72
2022/11/06 02:07:18;;;;;;;11.77;7.55;;;9.60;99.90;;;;;;5022818;28;20040;-72
2022/11/06 02:09:44;;;;;;;20.17;7.30;;;9.60;99.90;;;;;;5032621;28;20068;-72
2022/11/06 02:12:35;;;;;;;13.60;7.00;;;9.50;99.90;;;;;;5028466;28;20086;-72
2022/11/06 02:15:13;;;;;;;14.30;7.43;;;9.60;99.90;;;;;;5045710;28;20378;-72
2022/11/06 02:18:06;;;;;;;14.77;7.97;;;9.60;99.90;;;;;;5047468;28;20287;-72
2022/11/06 02:21:01;;;;;;;12.73;7.30;;;9.60;99.90;;;;;;5045117;28;20666;-72
2022/11/06 02:23:56;;;;;;;12.68;7.22;;;9.60;99.90;;;;;;5014015;28;20762;-72
2022/11/06 02:26:45;;;;;;;12.33;8.27;;;9.60;99.90;;;;;;5032582;28;20457;-72
2022/11/06 02:29:21;;;;;;;12.10;7.50;;;9.60;99.90;;;;;;5048574;28;20290;-72
2022/11/06 02:31:51;;;;;;;11.40;7.47;;;9.60;99.90;;;;;;5027046;28;20267;-72
2022/11/06 02:34:19;;;;;;;12.47;7.13;;;9.60;99.90;;;;;;5064280;28;20400;-72
2022/11/06 02:37:06;;;;;;;12.70;7.37;;;9.60;99.90;;;;;;5032640;28;20770;-72
2022/11/06 02:39:36;;;;;;;13.38;7.22;;;9.60;99.90;;;;;;5030837;28;20642;-72
2022/11/06 02:42:04;;;;;;;12.73;7.47;;;9.70;99.90;;;;;;5047365;28;20052;-72
2022/11/06 02:44:31;;;;;;;14.32;7.43;;;9.70;99.90;;;;;;5048299;28;20306;-72
2022/11/06 02:47:04;;;;;;;13.17;7.43;;;9.70;99.90;;;;;;5027194;28;20051;-72
2022/11/06 02:49:39;;;;;;;12.60;7.67;;;9.70;99.90;;;;;;5049677;28;20290;-72
2022/11/06 02:52:10;;;;;;;9.45;7.28;;;9.70;99.90;;;;;;5031736;28;20279;-72
2022/11/06 02:54:39;;;;;;;15.63;7.80;;;9.80;99.90;;;;;;5041593;28;20074;-72
2022/11/06 02:57:14;;;;;;;16.60;7.67;;;9.80;99.90;;;;;;5048778;28;20457;-72
2022/11/06 03:00:16;;;;;;;11.68;8.10;;;9.80;99.90;;;;;;5048974;28;20297;-72
2022/11/06 03:02:56;;;;;;;15.47;8.60;;;9.80;99.90;;;;;;4977756;28;20039;-72
2022/11/06 03:05:52;;;;;;;11.57;7.27;;;9.80;99.90;;;;;;5040226;28;20298;-72
2022/11/06 03:08:18;;;;;;;12.40;7.60;;;9.90;99.90;;;;;;5065631;28;20317;-72
2022/11/06 03:11:08;;;;;;;13.33;7.63;;;9.80;99.90;;;;;;5031608;28;20044;-72
2022/11/06 03:14:12;;;;;;;12.50;8.00;;;9.80;99.90;;;;;;5031810;28;20043;-72
2022/11/06 03:16:55;;;;;;;11.80;7.43;;;9.80;99.90;;;;;;5042359;28;20295;-72
2022/11/06 03:19:36;;;;;;;8.87;7.23;;;9.90;99.90;;;;;;5024045;28;20801;-72
2022/11/06 03:22:07;;;;;;;10.40;7.83;;;9.90;99.90;;;;;;5031988;28;20278;-72
2022/11/06 03:25:01;;;;;;;13.57;8.18;;;9.90;99.90;;;;;;5047655;28;20369;-71
2022/11/06 03:27:45;;;;;;;11.00;7.53;;;9.90;99.90;;;;;;5042920;28;20267;-72
2022/11/06 03:30:12;;;;;;;9.40;6.70;;;9.90;99.90;;;;;;5038526;28;20352;-72
2022/11/06 03:33:08;;;;;;;10.00;7.17;;;9.90;99.90;;;;;;5024017;28;20283;-72
2022/11/06 03:35:47;;;;;;;12.75;7.05;;;10.00;99.90;;;;;;5041258;28;20291;-72
2022/11/06 03:38:18;;;;;;;10.67;7.50;;;10.00;99.90;;;;;;5034555;28;20036;-72
2022/11/06 03:40:49;;;;;;;9.83;6.97;;;9.90;99.90;;;;;;5042258;28;20291;-72
2022/11/06 03:43:18;;;;;;;10.20;7.03;;;10.00;99.90;;;;;;5047800;28;20313;-72
2022/11/06 03:45:46;;;;;;;10.80;7.30;;;10.00;99.90;;;;;;5048200;28;20316;-72
2022/11/06 03:48:18;;;;;;;9.47;7.67;;;10.00;99.90;;;;;;5032031;28;20299;-72
2022/11/06 03:50:52;;;;;;;10.33;7.57;;;10.00;99.90;;;;;;5045498;28;20770;-72
2022/11/06 03:53:43;;;;;;;13.20;7.80;;;10.00;99.90;;;;;;5024683;28;20295;-72
2022/11/06 03:56:15;;;;;;;11.73;7.57;;;10.00;99.90;;;;;;5038097;28;20086;-72
2022/11/06 03:58:45;;;;;;;12.83;7.23;;;10.00;99.90;;;;;;5023416;28;20790;-72
2022/11/06 04:01:13;;;;;;;10.07;7.10;;;10.00;99.90;;;;;;5047365;28;20756;-72
2022/11/06 04:03:50;;;;;;;10.43;8.20;;;10.00;99.90;;;;;;5040681;28;20287;-72
2022/11/06 04:06:24;;;;;;;11.67;7.20;;;10.00;99.90;;;;;;5040530;28;20691;-72
2022/11/06 04:14:26;;;;;;;10.23;7.40;;;10.00;99.90;;;;;;5042887;28;20285;-72
2022/11/06 04:16:57;;;;;;;10.73;7.10;;;10.00;99.90;;;;;;5039870;28;21173;-72
2022/11/06 04:19:23;;;;;;;11.97;7.40;;;10.00;99.90;;;;;;5044718;28;20649;-72
2022/11/06 04:22:26;;;;;;;11.07;7.50;;;10.00;99.90;;;;;;5041023;28;20278;-72
2022/11/06 04:28:09;;;;;;;12.03;7.10;;;10.00;99.90;;;;;;5047222;28;20500;-72
2022/11/06 04:31:02;;;;;;;15.32;7.63;;;9.90;99.90;;;;;;5022317;28;20660;-72
2022/11/06 04:33:57;;;;;;;10.93;7.03;;;10.00;99.90;;;;;;5047234;28;20051;-72
2022/11/06 04:36:22;;;;;;;11.70;6.65;;;10.00;99.90;;;;;;5046955;28;20336;-72
2022/11/06 04:38:54;;;;;;;11.00;7.13;;;9.90;99.90;;;;;;5047668;28;20178;-72
2022/11/06 04:41:33;;;;;;;10.17;7.20;;;9.90;99.90;;;;;;5030469;28;20408;-72
2022/11/06 04:44:14;;;;;;;14.13;7.47;;;9.90;99.90;;;;;;5030748;28;20286;-72
2022/11/06 04:46:48;;;;;;;11.17;6.97;;;9.90;99.90;;;;;;5046975;28;21033;-72
2022/11/06 04:49:15;;;;;;;12.27;7.70;;;9.90;99.90;;;;;;5030227;28;20285;-72
2022/11/06 04:51:44;;;;;;;9.87;7.07;;;9.90;99.90;;;;;;5013252;28;20290;-72
2022/11/06 04:54:10;;;;;;;11.37;6.90;;;9.90;99.90;;;;;;5053945;28;20340;-72
2022/11/06 04:56:37;;;;;;;10.13;6.53;;;9.90;99.90;;;;;;5047960;28;20283;-72
2022/11/06 04:59:04;;;;;;;10.90;7.10;;;9.90;99.90;;;;;;5032331;28;20278;-72
2022/11/06 05:01:30;;;;;;;9.10;6.80;;;9.90;99.90;;;;;;5044105;28;20287;-72
2022/11/06 05:03:56;;;;;;;13.87;6.77;;;9.90;99.90;;;;;;5031279;28;20289;-72
2022/11/06 05:06:21;;;;;;;11.13;7.13;;;9.90;99.90;;;;;;5026499;28;20041;-72
2022/11/06 05:08:47;;;;;;;11.90;6.80;;;9.80;99.90;;;;;;5041583;28;20492;-72
2022/11/06 05:11:13;;;;;;;10.87;7.20;;;9.80;99.90;;;;;;5026035;28;20111;-71
2022/11/06 05:13:38;;;;;;;9.20;6.50;;;9.80;99.90;;;;;;5039965;28;20036;-72
2022/11/06 05:16:04;;;;;;;11.87;6.83;;;9.80;99.90;;;;;;5013475;28;20036;-72
2022/11/06 05:18:30;;;;;;;11.13;7.13;;;9.80;99.90;;;;;;5029921;28;20063;-72
2022/11/06 05:23:45;;;;;;;13.30;7.53;;;9.70;99.90;;;;;;5046429;28;20285;-72
2022/11/06 05:26:11;;;;;;;12.60;7.23;;;9.70;99.90;;;;;;5030218;28;20801;-72
2022/11/06 05:28:36;;;;;;;10.53;7.10;;;9.70;99.90;;;;;;5028261;28;20056;-72
2022/11/06 05:31:02;;;;;;;14.03;7.63;;;9.70;99.90;;;;;;5051838;28;20102;-72
2022/11/06 05:33:28;;;;;;;12.70;7.53;;;9.80;99.90;;;;;;5029788;28;20043;-72
2022/11/06 05:35:54;;;;;;;10.43;6.90;;;9.70;99.90;;;;;;5046606;28;20127;-72
2022/11/06 05:38:20;;;;;;;13.03;7.50;;;9.70;99.90;;;;;;5021620;28;20048;-72
2022/11/06 05:40:45;;;;;;;19.20;7.43;;;9.70;99.90;;;;;;5029738;28;20078;-72
2022/11/06 05:43:11;;;;;;;15.97;7.27;;;9.70;99.90;;;;;;5014116;28;20066;-72
2022/11/06 05:45:37;;;;;;;13.65;8.27;;;9.70;99.90;;;;;;5045827;28;20728;-72
2022/11/06 05:48:03;;;;;;;16.93;7.80;;;9.70;99.90;;;;;;5030025;28;20041;-72
2022/11/06 05:50:29;;;;;;;12.67;7.67;;;9.70;99.90;;;;;;5009645;28;20052;-72
2022/11/06 05:52:55;;;;;;;15.40;8.33;;;9.70;99.90;;;;;;5031446;28;20295;-71
2022/11/06 05:55:20;;;;;;;14.97;8.53;;;9.70;99.90;;;;;;5010558;28;20059;-71
2022/11/06 05:57:46;;;;;;;14.73;9.17;;;9.70;99.90;;;;;;5033407;28;20068;-71
2022/11/06 06:00:12;;;;;;;12.77;8.13;;;9.60;99.90;;;;;;5032825;28;20171;-72
2022/11/06 06:02:38;;;;;;;13.47;7.93;;;9.60;99.90;;;;;;5049401;28;20139;-72
2022/11/06 06:05:05;;;;;;;12.33;8.07;;;9.60;99.90;;;;;;5041016;28;20369;-72
2022/11/06 06:07:31;;;;;;;14.63;9.13;;;9.60;99.90;;;;;;5001003;28;20338;-72
2022/11/06 06:09:57;;;;;;;12.20;7.97;;;9.60;99.90;;;;;;5042528;28;20516;-72
2022/11/06 06:12:25;;;;;;;15.87;9.20;;;9.60;99.90;;;;;;5032794;28;20466;-72
2022/11/06 06:14:51;;;;;;;17.47;8.57;;;9.60;99.90;;;;;;5049624;28;20044;-72
2022/11/06 06:17:18;;;;;;;13.13;8.87;;;9.60;99.90;;;;;;5032403;28;20311;-71
2022/11/06 06:19:44;;;;;;;17.03;9.00;;;9.50;99.90;;;;;;5031731;28;20382;-71
2022/11/06 06:22:10;;;;;;;15.03;8.77;;;9.50;99.90;;;;;;5033045;28;20374;-71
2022/11/06 06:24:36;;;;;;;16.43;9.13;;;9.40;99.90;;;;;;5049484;28;20067;-71
2022/11/06 06:27:02;;;;;;;15.53;8.43;;;9.40;99.90;;;;;;5012757;28;20319;-71
2022/11/06 06:29:28;;;;;;;13.47;8.27;;;9.40;99.90;;;;;;5043200;28;20299;-71
2022/11/06 06:31:53;;;;;;;16.83;9.07;;;9.40;99.90;;;;;;5032967;28;20356;-71
2022/11/06 06:34:19;;;;;;;15.13;9.10;;;9.40;99.90;;;;;;5003483;28;20044;-71
2022/11/06 06:36:49;;;;;;;13.00;7.67;;;9.30;99.90;;;;;;5039265;28;20110;-71
2022/11/06 06:39:15;;;;;;;12.95;7.97;;;9.30;99.90;;;;;;5026888;28;20358;-71
2022/11/06 06:41:40;;;;;;;12.40;7.00;;;9.30;99.90;;;;;;5029394;28;20425;-71
2022/11/06 06:44:06;;;;;;;17.10;7.70;;;9.30;99.90;;;;;;5028165;28;20400;-72
2022/11/06 06:46:32;;;;;;;15.53;7.30;;;9.30;99.90;;;;;;5032023;28;20056;-71
2022/11/06 06:48:58;;;;;;;15.37;7.20;;;9.30;99.90;;;;;;5042739;28;20045;-72
2022/11/06 06:51:23;;;;;;;13.40;7.30;;;9.30;99.90;;;;;;5031226;28;20500;-72
2022/11/06 06:53:49;;;;;;;15.27;7.00;;;9.40;99.90;;;;;;5031158;28;20123;-73
2022/11/06 06:56:15;;;;;;;13.23;7.57;;;9.40;99.90;;;;;;5029852;28;20518;-72
2022/11/06 06:58:40;;;;;;;14.57;6.97;;;9.30;99.90;;;;;;5028259;28;20518;-72
2022/11/06 07:01:09;;;;;;;16.17;7.03;;;9.40;99.90;;;;;;5028280;28;20264;-72
2022/11/06 07:03:36;;;;;;;16.20;7.88;;;9.30;99.90;;;;;;5020397;28;20049;-72
2022/11/06 07:06:02;;;;;;;13.97;7.57;;;9.30;99.90;;;;;;5047178;28;20051;-72
2022/11/06 07:08:28;;;;;;;10.37;7.33;;;9.30;99.90;;;;;;5032254;28;20733;-72
2022/11/06 07:11:08;;;;;;;14.18;6.78;;;9.30;99.90;;;;;;5027311;28;20041;-72
2022/11/06 07:13:34;;;;;;;17.50;7.43;;;9.30;99.90;;;;;;5032249;28;20078;-72
2022/11/06 07:16:08;;;;;;;18.93;7.10;;;9.30;99.90;;;;;;5028894;28;20041;-72
2022/11/06 07:18:36;;;;;;;11.07;6.50;;;9.30;99.90;;;;;;5025436;28;20344;-72
2022/11/06 07:21:06;;;;;;;14.53;6.13;;;9.30;99.90;;;;;;5047890;28;20294;-72
2022/11/06 07:23:34;;;;;;;13.55;6.78;;;9.30;99.90;;;;;;5015739;28;20340;-72
2022/11/06 07:26:00;;;;;;;12.57;6.00;;;9.30;99.90;;;;;;5027313;28;20041;-72
2022/11/06 07:28:26;;;;;;;15.00;6.05;;;9.40;99.90;;;;;;5027737;28;20456;-72
2022/11/06 07:30:56;;;;;;;12.23;5.50;;;9.40;99.90;;;;;;5044709;28;20036;-74
2022/11/06 07:33:21;;;;;;;12.65;5.82;;;9.40;99.90;;;;;;5021421;28;20041;-73
2022/11/06 07:35:47;;;;;;;14.00;5.50;;;9.40;99.90;;;;;;5035765;28;20106;-73
2022/11/06 07:38:13;;;;;;;12.57;5.53;;;9.40;99.90;;;;;;5031639;28;20075;-73
2022/11/06 07:40:39;;;;;;;13.23;5.67;;;9.40;99.90;;;;;;5035714;28;20033;-73
2022/11/06 07:43:06;;;;;;;10.83;5.30;;;9.40;99.90;;;;;;5040342;28;20066;-73
2022/11/06 07:45:33;;;;;;;17.25;5.85;;;9.40;99.90;;;;;;5042850;28;20053;-73
2022/11/06 07:47:59;;;;;;;14.13;5.15;;;9.40;99.90;;;;;;5024935;28;20557;-73
2022/11/06 07:50:25;;;;;;;13.35;5.15;;;9.40;99.90;;;;;;5031168;28;20047;-73
2022/11/06 07:52:51;;;;;;;10.27;4.85;;;9.40;99.90;;;;;;5029733;28;20047;-73
2022/11/06 07:55:17;;;;;;;8.57;5.13;;;9.50;99.90;;;;;;5008029;28;20041;-74
2022/11/06 07:57:43;;;;;;;11.47;4.87;;;9.50;99.90;;;;;;5062097;28;20068;-74
2022/11/06 08:00:09;;;;;;;14.93;5.47;;;9.50;99.90;;;;;;5020784;28;20109;-74
2022/11/06 08:02:35;;;;;;;12.20;4.60;;;9.50;99.90;;;;;;5023194;28;20045;-73
2022/11/06 08:05:01;;;;;;;17.60;5.40;;;9.50;99.90;;;;;;5004069;28;20052;-73
2022/11/06 08:07:26;;;;;;;11.77;4.33;;;9.50;99.90;;;;;;5028429;28;20041;-73
2022/11/06 08:09:52;;;;;;;12.40;4.10;;;9.50;99.90;;;;;;5037553;28;20055;-73
2022/11/06 08:12:18;;;;;;;17.80;5.10;;;9.50;99.90;;;;;;5048394;28;20037;-74
2022/11/06 08:14:44;;;;;;;13.77;4.83;;;9.60;99.90;;;;;;5052496;28;20089;-73
2022/11/06 08:17:09;;;;;;;10.00;4.40;;;9.60;99.90;;;;;;5032247;28;20051;-74
2022/11/06 08:19:35;;;;;;;10.63;3.70;;;9.60;99.90;;;;;;5014894;28;20504;-73
2022/11/06 08:22:01;;;;;;;10.77;3.97;;;9.60;99.90;;;;;;5044250;28;20375;-73
2022/11/06 08:24:26;;;;;;;6.87;3.60;;;9.70;99.90;;;;;;5052484;28;20028;-73
2022/11/06 08:26:53;;;;;;;9.43;3.87;;;9.70;99.90;;;;;;5046520;28;20358;-73
2022/11/06 08:29:18;;;;;;;10.88;3.92;;;9.70;99.90;;;;;;5035117;28;20041;-73
2022/11/06 08:31:44;;;;;;;10.90;4.00;;;9.80;99.90;;;;;;5045906;28;20040;-73
2022/11/06 08:34:10;;;;;;;6.73;3.80;;;9.80;99.90;;;;;;5028166;28;20043;-73
2022/11/06 08:36:39;;;;;;;6.27;3.37;;;9.80;99.90;;;;;;5014169;28;20571;-74
2022/11/06 08:39:05;;;;;;;7.47;3.33;;;9.90;99.90;;;;;;5019199;28;20350;-73
2022/11/06 08:41:31;;;;;;;7.00;3.40;;;9.90;99.90;;;;;;5032092;28;20616;-73
2022/11/06 08:43:57;;;;;;;7.97;2.80;;;9.90;99.90;;;;;;5030632;28;20033;-73
2022/11/06 08:46:22;;;;;;;11.30;4.10;;;9.90;99.90;;;;;;5028996;28;20033;-73
2022/11/06 08:48:48;;;;;;;13.00;3.50;;;9.90;99.90;;;;;;5007066;28;20032;-73
2022/11/06 08:51:14;;;;;;;8.80;3.63;;;9.90;99.90;;;;;;5032987;28;20056;-73
2022/11/06 08:53:39;;;;;;;10.40;3.57;;;10.00;99.90;;;;;;5030864;28;20553;-73
2022/11/06 08:56:06;;;;;;;9.60;4.10;;;9.90;99.90;;;;;;5048392;28;20033;-76
2022/11/06 08:58:31;;;;;;;10.13;3.57;;;9.90;99.90;;;;;;5043513;28;20040;-73
2022/11/06 09:00:57;;;;;;;9.40;3.60;;;9.90;99.90;;;;;;5047042;28;20317;-74
2022/11/06 09:03:23;;;;;;;8.63;3.23;;;9.90;99.90;;;;;;5017688;28;20037;-73
2022/11/06 09:05:49;;;;;;;9.63;3.50;;;9.90;99.90;;;;;;5018300;28;20069;-74
2022/11/06 09:08:15;;;;;;;10.80;3.70;;;9.90;99.90;;;;;;5028554;28;20033;-74
2022/11/06 09:10:42;;;;;;;7.57;3.23;;;9.90;99.90;;;;;;5040299;28;20122;-73
2022/11/06 09:13:08;;;;;;;8.33;3.37;;;9.90;99.90;;;;;;5028778;28;20379;-74
2022/11/06 09:15:34;;;;;;;16.93;3.50;;;9.90;99.90;;;;;;5012769;28;20288;-74
2022/11/06 09:17:59;;;;;;;11.20;3.40;;;9.90;99.90;;;;;;5044853;28;20278;-73
2022/11/06 09:20:25;;;;;;;11.60;3.73;;;9.90;99.90;;;;;;5035444;28;20123;-73
2022/11/06 09:22:52;;;;;;;9.17;3.57;;;9.90;99.90;;;;;;5044697;28;20044;-75
2022/11/06 09:25:18;;;;;;;7.63;3.10;;;9.90;99.90;;;;;;5039358;28;20782;-74
2022/11/06 09:27:46;;;;;;;11.87;3.30;;;9.90;99.90;;;;;;5048590;28;20302;-73
2022/11/06 09:30:15;;;;;;;8.57;3.03;;;9.90;99.90;;;;;;5030384;28;20278;-74
2022/11/06 09:32:50;;;;;;;9.20;3.13;;;9.90;99.90;;;;;;5051400;28;20303;-74
2022/11/06 09:35:16;;;;;;;8.88;3.38;;;9.90;99.90;;;;;;5050608;28;20282;-74
2022/11/06 09:37:43;;;;;;;8.00;3.10;;;9.90;99.90;;;;;;5034163;28;20368;-74
2022/11/06 09:40:31;;;;;;;7.90;2.97;;;9.90;99.90;;;;;;5047375;28;20831;-74
2022/11/06 09:43:35;;;;;;;10.90;3.73;;;9.90;99.90;;;;;;5032808;28;20296;-75
2022/11/06 09:46:12;;;;;;;8.70;3.30;;;9.90;99.90;;;;;;5033616;28;20287;-75
2022/11/06 09:48:45;;;;;;;13.83;3.73;;;9.90;99.90;;;;;;5048420;28;20299;-75
2022/11/06 09:51:22;;;;;;;11.20;3.20;;;9.90;99.90;;;;;;5050725;28;21231;-75
2022/11/06 09:53:55;;;;;;;8.93;3.20;;;9.90;99.90;;;;;;5033946;28;20283;-74
2022/11/06 09:56:24;;;;;;;11.60;2.93;;;9.90;99.90;;;;;;5034112;28;20275;-75
2022/11/06 09:58:53;;;;;;;7.83;2.87;;;10.00;99.90;;;;;;5031309;28;20283;-74
2022/11/06 10:01:34;;;;;;;8.80;2.90;;;10.00;99.90;;;;;;5046549;28;20274;-75
2022/11/06 10:04:02;;;;;;;7.20;2.93;;;10.00;99.90;;;;;;5053992;28;20294;-74
2022/11/06 10:06:32;;;;;;;6.90;2.67;;;10.10;99.90;;;;;;5050812;28;20739;-74
2022/11/06 10:09:01;;;;;;;8.93;2.80;;;10.10;99.90;;;;;;5031793;28;20306;-74
2022/11/06 10:11:59;;;;;;;9.20;3.07;;;10.10;99.90;;;;;;5040759;28;20794;-74
2022/11/06 10:14:59;;;;;;;7.03;3.30;;;10.10;99.90;;;;;;5047143;28;20695;-73
2022/11/06 10:17:31;;;;;;;11.53;2.93;;;10.10;99.90;;;;;;5043454;28;20283;-74
2022/11/06 10:20:20;;;;;;;8.07;3.28;;;10.10;99.90;;;;;;5063550;28;20693;-74
2022/11/06 10:23:17;;;;;;;12.83;2.90;;;10.20;99.90;;;;;;5046955;28;20040;-74
2022/11/06 10:25:53;;;;;;;9.93;3.17;;;10.20;99.90;;;;;;5022144;28;20287;-75
2022/11/06 10:28:49;;;;;;;12.77;3.20;;;10.20;99.90;;;;;;5036669;28;20883;-74
2022/11/06 10:31:18;;;;;;;8.30;3.10;;;10.20;99.90;;;;;;5041600;28;20302;-74
2022/11/06 10:34:15;;;;;;;7.30;2.60;;;10.10;99.90;;;;;;5046932;28;20294;-74
2022/11/06 10:36:47;;;;;;;8.63;3.00;;;10.10;99.90;;;;;;5041273;28;20646;-74
2022/11/06 10:39:21;;;;;;;12.17;3.20;;;10.10;99.90;;;;;;5024986;28;20326;-74
2022/11/06 10:41:55;;;;;;;10.20;2.90;;;10.10;99.90;;;;;;5045821;28;20803;-74
2022/11/06 10:44:31;;;;;;;7.35;2.92;;;10.10;99.90;;;;;;5047141;28;20279;-74
2022/11/06 10:47:19;;;;;;;10.83;3.47;;;10.10;99.90;;;;;;5027541;28;20051;-74
2022/11/06 10:50:09;;;;;;;5.67;2.50;;;10.10;99.90;;;;;;5029206;28;20893;-74
2022/11/06 10:52:41;;;;;;;5.63;3.17;;;10.10;99.90;;;;;;5027731;28;20741;-74
2022/11/06 10:55:31;;;;;;;6.37;3.07;;;10.10;99.90;;;;;;5043100;28;20291;-74
2022/11/06 10:58:12;;;;;;;10.43;3.30;;;10.20;99.90;;;;;;5030211;28;20326;-74
2022/11/06 11:00:38;;;;;;;10.03;3.17;;;10.20;99.90;;;;;;5046012;28;20805;-74
2022/11/06 11:03:13;;;;;;;6.93;3.40;;;10.20;99.90;;;;;;5028829;28;20290;-75
2022/11/06 11:05:40;;;;;;;11.13;3.70;;;10.20;99.90;;;;;;5046911;28;20294;-74
2022/11/06 11:08:29;;;;;;;7.73;3.73;;;10.30;99.90;;;;;;5044072;28;20135;-75
2022/11/06 11:11:04;;;;;;;7.43;3.00;;;10.30;99.90;;;;;;5041967;28;20366;-74
2022/11/06 11:13:31;;;;;;;12.97;2.83;;;10.40;99.90;;;;;;5018852;28;20762;-74
2022/11/06 11:15:57;;;;;;;9.43;3.70;;;10.40;99.90;;;;;;5037930;28;20282;-75
2022/11/06 11:18:30;;;;;;;14.10;3.00;;;10.40;99.90;;;;;;5054101;28;20291;-75
2022/11/06 11:21:08;;;;;;;7.50;2.87;;;10.50;99.90;;;;;;5026278;28;20314;-74
2022/11/06 11:23:34;;;;;;;7.90;2.70;;;10.60;99.90;;;;;;5035593;28;20340;-74
2022/11/06 11:26:20;;;;;;;7.23;2.97;;;10.60;99.90;;;;;;5024399;28;20298;-74
2022/11/06 11:29:36;;;;;;;8.83;2.70;;;10.70;99.90;;;;;;5046039;28;20045;-74
2022/11/06 11:32:05;;;;;;;7.40;2.70;;;10.70;99.90;;;;;;5024006;28;20306;-74
2022/11/06 11:34:35;;;;;;;8.63;3.37;;;10.70;99.90;;;;;;5036576;28;20372;-74
2022/11/06 11:37:03;;;;;;;7.27;2.93;;;10.80;99.90;;;;;;5023025;28;20296;-74
2022/11/06 11:39:35;;;;;;;8.93;2.97;;;10.90;99.90;;;;;;5045537;28;20379;-74
2022/11/06 11:42:25;;;;;;;8.00;2.80;;;10.90;99.90;;;;;;5041281;28;20289;-72
2022/11/06 11:45:14;;;;;;;9.53;3.00;;;11.00;99.90;;;;;;5024180;28;20628;-74
2022/11/06 11:47:43;;;;;;;8.17;2.50;;;11.10;99.90;;;;;;5040724;28;20802;-74
2022/11/06 11:50:20;;;;;;;8.17;2.50;;;11.10;99.90;;;;;;5048137;28;20643;-74
2022/11/06 11:52:50;;;;;;;13.87;2.97;;;11.20;99.90;;;;;;5031720;28;20386;-73
2022/11/06 11:55:19;;;;;;;6.97;2.53;;;11.30;99.90;;;;;;5045581;28;20274;-74
2022/11/06 11:57:48;;;;;;;10.53;2.77;;;11.30;99.90;;;;;;5030591;28;20824;-74
2022/11/06 12:00:17;;;;;;;11.23;2.73;;;11.30;99.90;;;;;;5048381;28;20694;-74
2022/11/06 12:02:59;;;;;;;11.50;3.60;;;11.40;99.90;;;;;;5053247;28;20282;-74
2022/11/06 12:05:40;;;;;;;8.83;3.00;;;11.40;99.90;;;;;;5036617;28;20290;-75
2022/11/06 12:08:12;;;;;;;12.00;3.00;;;11.40;99.90;;;;;;5020595;28;20310;-74
2022/11/06 12:10:41;;;;;;;8.87;2.07;;;11.40;99.90;;;;;;5042811;28;20640;-74
2022/11/06 12:13:14;;;;;;;11.30;2.53;;;11.50;99.90;;;;;;5042935;28;20638;-74
2022/11/06 12:16:07;;;;;;;8.40;1.93;;;11.50;99.90;;;;;;5045594;28;20349;-75
2022/11/06 12:18:39;;;;;;;8.30;2.47;;;11.60;99.90;;;;;;5041159;28;20297;-74
2022/11/06 12:21:33;;;;;;;7.60;1.60;;;11.60;99.90;;;;;;5030772;28;20290;-74
2022/11/06 12:24:05;;;;;;;7.53;2.40;;;11.60;99.90;;;;;;5043807;28;20283;-74
2022/11/06 12:26:42;;;;;;;6.77;1.90;;;11.60;99.90;;;;;;5047081;28;20891;-74
2022/11/06 12:29:33;;;;;;;7.60;2.43;;;11.70;99.90;;;;;;5042476;28;20335;-74
2022/11/06 12:32:24;;;;;;;4.87;1.97;;;11.60;99.90;;;;;;5031426;28;20286;-74
2022/11/06 12:35:02;;;;;;;7.97;1.57;;;11.60;99.90;;;;;;5031648;28;20714;-74
2022/11/06 12:37:54;;;;;;;4.60;1.70;;;11.60;99.90;;;;;;5030620;28;20318;-74
2022/11/06 12:40:24;;;;;;;5.67;1.40;;;11.60;99.90;;;;;;5023308;28;20782;-74
2022/11/06 12:43:19;;;;;;;5.57;1.40;;;11.60;99.90;;;;;;5024426;28;20303;-73
2022/11/06 12:45:55;;;;;;;4.70;2.10;;;11.60;99.90;;;;;;5026516;28;20290;-73
2022/11/06 12:48:33;;;;;;;5.27;1.60;;;11.60;99.90;;;;;;5023870;28;20291;-73
2022/11/06 12:51:18;;;;;;;5.67;1.70;;;11.50;99.90;;;;;;5024916;28;20283;-74
2022/11/06 12:53:50;;;;;;;6.67;1.80;;;11.50;99.90;;;;;;5026732;28;20295;-74
2022/11/06 12:56:20;;;;;;;5.90;2.13;;;11.50;99.90;;;;;;5039878;28;20279;-73
2022/11/06 12:59:04;;;;;;;4.60;1.30;;;11.40;99.90;;;;;;5025496;28;21177;-73
2022/11/06 13:01:45;;;;;;;4.60;1.43;;;11.40;99.90;;;;;;5027366;28;20335;-73
2022/11/06 13:04:18;;;;;;;8.47;1.70;;;11.40;99.90;;;;;;5023667;28;20283;-73
2022/11/06 13:07:22;;;;;;;6.20;1.60;;;11.30;99.90;;;;;;5046364;28;20290;-73
2022/11/06 13:09:54;;;;;;;7.63;1.87;;;11.20;99.90;;;;;;4987052;28;20372;-73
2022/11/06 13:12:42;;;;;;;7.30;1.90;;;11.10;99.90;;;;;;4974373;28;20753;-73
2022/11/06 13:15:17;;;;;;;7.93;1.73;;;11.10;99.90;;;;;;5005141;28;20279;-73
2022/11/06 13:18:11;;;;;;;6.00;1.80;;;11.00;99.90;;;;;;5025857;28;20650;-73
2022/11/06 13:20:42;;;;;;;6.43;1.90;;;10.90;99.90;;;;;;5038218;28;20854;-73
2022/11/06 13:23:15;;;;;;;4.77;1.80;;;10.90;99.90;;;;;;5043842;28;20293;-73
2022/11/06 13:26:05;;;;;;;9.03;2.20;;;10.90;99.90;;;;;;5030506;28;20282;-73
2022/11/06 13:28:45;;;;;;;5.50;2.17;;;10.80;99.90;;;;;;5021556;28;20295;-73